Terminal Aerodrome Forecast
Issued by NWS

Current Version | Previous Version | Text Only | Print | Product List | Glossary On
Versions: 1 2 3 4 5 6 7 8 9 10 11 12 13 14 15 16
000
FTAK31 PAJN 220500
TAFAKT
TAF
PAKT 220537Z 2206/2306 15006KT P6SM -SHRA SCT020 BKN035 OVC050
      TEMPO 2206/2210 15006KT 5SM SHRA BR BKN015 OVC030
     FM221000 VRB05KT P6SM -SHRA BKN025 BKN035
     FM221600 14007KT P6SM VCSH SCT025 BKN035
     FM230000 13010KT P6SM BKN040
      AMD LTD TO CLD VIS AND WIND 2206/2215=

USA.gov is the U.S. government's official web portal to all federal, state and local government web resources and services.